Time;durP1;ratioP1;P1;durP2;ratioP2;P2;SDS_P1;SDS_P2;PMS_P1;PMS_P2;Temp;Humidity;BMP_temperature;BMP_pressure;BME280_temperature;BME280_humidity;BME280_pressure;Samples;Min_cycle;Max_cycle;Signal;HPM_P1;HPM_P2
2022/05/01 00:00:40;;;;;;;1.70;1.60;;;;;;;8.26;100.00;96632.59;5018285;28;20218;-84
2022/05/01 00:03:07;;;;;;;2.10;1.80;;;;;;;8.35;100.00;96634.06;5031175;28;20222;-84
2022/05/01 00:05:36;;;;;;;3.63;1.80;;;;;;;8.34;100.00;96629.72;5021204;28;20199;-84
2022/05/01 00:08:04;;;;;;;3.30;1.97;;;;;;;8.26;100.00;96630.75;5019132;28;20210;-84
2022/05/01 00:10:31;;;;;;;2.07;1.83;;;;;;;8.27;100.00;96624.31;5016980;28;20229;-84
2022/05/01 00:12:58;;;;;;;2.13;1.57;;;;;;;8.21;100.00;96627.84;5033707;28;20215;-84
2022/05/01 00:15:25;;;;;;;2.53;1.67;;;;;;;8.18;100.00;96628.25;5041319;28;20280;-84
2022/05/01 00:17:52;;;;;;;3.77;1.73;;;;;;;8.08;100.00;96624.38;5038408;28;20220;-84
2022/05/01 00:20:19;;;;;;;2.03;1.83;;;;;;;8.05;100.00;96628.28;5028478;28;20234;-84
2022/05/01 00:22:47;;;;;;;2.40;1.83;;;;;;;8.09;100.00;96626.00;5037810;28;20227;-84
2022/05/01 00:25:14;;;;;;;1.63;1.53;;;;;;;7.97;100.00;96617.75;5041776;28;20212;-84
2022/05/01 00:27:42;;;;;;;3.43;1.40;;;;;;;7.98;100.00;96620.22;5027936;28;20206;-84
2022/05/01 00:30:09;;;;;;;2.63;1.40;;;;;;;8.03;100.00;96618.75;5024580;28;20211;-84
2022/05/01 00:38:07;;;;;;;1.83;1.50;;;;;;;8.09;100.00;96626.81;5025748;28;20199;-84
2022/05/01 00:40:34;;;;;;;2.90;1.83;;;;;;;8.01;100.00;96613.59;5035722;28;20249;-84
2022/05/01 00:43:03;;;;;;;1.83;1.47;;;;;;;7.96;100.00;96618.78;5029776;28;20222;-84
2022/05/01 00:45:30;;;;;;;2.33;1.80;;;;;;;7.89;100.00;96621.47;5028064;28;20214;-84
2022/05/01 00:47:57;;;;;;;3.33;1.90;;;;;;;7.82;100.00;96614.44;5026031;28;20274;-84
2022/05/01 00:50:25;;;;;;;1.60;1.50;;;;;;;7.85;100.00;96614.00;5027385;28;20241;-84
2022/05/01 00:52:54;;;;;;;1.93;1.63;;;;;;;7.86;100.00;96604.91;5036417;28;20293;-84
2022/05/01 00:55:23;;;;;;;2.07;1.70;;;;;;;7.86;100.00;96610.28;5028166;28;20217;-84
2022/05/01 00:57:50;;;;;;;3.83;1.80;;;;;;;7.91;100.00;96608.63;5028300;28;20207;-84
2022/05/01 01:00:19;;;;;;;1.97;1.80;;;;;;;8.02;100.00;96607.19;5046408;28;20258;-84
2022/05/01 01:02:48;;;;;;;2.43;1.70;;;;;;;8.03;100.00;96600.78;5041870;28;20384;-84
2022/05/01 01:05:16;;;;;;;4.33;2.50;;;;;;;7.99;100.00;96588.78;5044194;28;20263;-84
2022/05/01 01:07:43;;;;;;;2.57;2.00;;;;;;;7.94;100.00;96602.84;5022062;28;20211;-84
2022/05/01 01:10:11;;;;;;;3.07;2.10;;;;;;;7.83;100.00;96597.25;5025910;28;20290;-84
2022/05/01 01:12:57;;;;;;;2.37;2.17;;;;;;;7.83;100.00;96597.25;5031684;28;20201;-84
2022/05/01 01:15:28;;;;;;;2.00;1.80;;;;;;;7.91;100.00;96597.06;5037485;28;20242;-84
2022/05/01 01:17:56;;;;;;;2.83;2.00;;;;;;;8.00;100.00;96601.16;5037403;28;20274;-84
2022/05/01 01:20:26;;;;;;;2.37;2.17;;;;;;;8.05;100.00;96595.19;5025347;28;20256;-84
2022/05/01 01:22:56;;;;;;;2.50;2.00;;;;;;;8.07;100.00;96598.50;5023108;28;20314;-84
2022/05/01 01:25:26;;;;;;;2.77;2.10;;;;;;;8.06;100.00;96597.69;5026236;28;20203;-84
2022/05/01 01:27:55;;;;;;;5.33;2.03;;;;;;;8.04;100.00;96586.28;5029644;28;20210;-84
2022/05/01 01:33:10;;;;;;;2.57;1.80;;;;;;;8.11;100.00;96594.34;5009660;28;20288;-84
2022/05/01 01:35:39;;;;;;;2.43;2.10;;;;;;;8.10;100.00;96595.38;5032610;28;20210;-84
2022/05/01 01:38:08;;;;;;;2.37;2.00;;;;;;;8.15;100.00;96601.81;5027971;28;20322;-84
2022/05/01 01:40:40;;;;;;;3.40;1.80;;;;;;;8.22;100.00;96607.16;5036536;28;20218;-84
2022/05/01 01:43:08;;;;;;;2.93;2.20;;;;;;;8.18;100.00;96597.84;5024245;28;20229;-84
2022/05/01 01:45:35;;;;;;;2.63;2.20;;;;;;;8.22;100.00;96605.31;5021951;28;20238;-84
2022/05/01 01:48:11;;;;;;;2.83;2.20;;;;;;;8.24;100.00;96602.41;5053716;28;20203;-84
2022/05/01 01:50:38;;;;;;;3.23;2.00;;;;;;;8.25;100.00;96593.31;5027595;28;20234;-84
2022/05/01 01:53:07;;;;;;;3.00;2.70;;;;;;;8.24;100.00;96599.72;5024953;28;20217;-84
2022/05/01 01:55:35;;;;;;;2.10;1.90;;;;;;;8.23;100.00;96595.38;5041131;28;20257;-84
2022/05/01 01:58:02;;;;;;;2.10;1.90;;;;;;;8.25;100.00;96599.50;5026915;28;20213;-84
2022/05/01 02:00:30;;;;;;;4.33;1.93;;;;;;;8.24;100.00;96592.47;5035977;28;20516;-85
2022/05/01 02:03:00;;;;;;;2.23;2.00;;;;;;;8.16;100.00;96592.72;5016689;28;20230;-84
2022/05/01 02:05:27;;;;;;;2.40;2.20;;;;;;;8.09;100.00;96599.09;5032206;28;20302;-84
2022/05/01 02:07:55;;;;;;;2.33;2.07;;;;;;;8.02;100.00;96593.72;5041079;28;20207;-84
2022/05/01 02:10:23;;;;;;;2.67;2.00;;;;;;;7.99;100.00;96588.78;5031302;28;20195;-84
2022/05/01 02:12:51;;;;;;;1.80;1.70;;;;;;;7.99;100.00;96581.53;5023752;28;20221;-84
2022/05/01 02:15:19;;;;;;;3.00;2.00;;;;;;;8.07;100.00;96590.44;5040546;28;20226;-84
2022/05/01 02:17:48;;;;;;;2.10;1.90;;;;;;;7.99;100.00;96583.41;5040751;28;20286;-84
2022/05/01 02:20:15;;;;;;;2.60;2.10;;;;;;;8.02;100.00;96582.16;5034217;28;20202;-84
2022/05/01 02:22:44;;;;;;;2.17;1.93;;;;;;;7.99;100.00;96572.66;5024456;28;20233;-85
2022/05/01 02:25:11;;;;;;;2.30;2.10;;;;;;;8.09;100.00;96588.34;5029025;28;20214;-84
2022/05/01 02:27:40;;;;;;;2.40;2.20;;;;;;;8.12;100.00;96588.75;5021402;28;20200;-84
2022/05/01 02:30:08;;;;;;;2.73;1.80;;;;;;;8.16;100.00;96591.88;5024629;28;20226;-84
2022/05/01 02:32:36;;;;;;;2.43;1.87;;;;;;;8.15;100.00;96591.03;5041017;28;20207;-85
2022/05/01 02:35:04;;;;;;;3.77;2.07;;;;;;;8.19;100.00;96584.19;5025867;28;20210;-84
2022/05/01 02:37:31;;;;;;;2.10;1.90;;;;;;;8.16;100.00;96587.31;5020011;28;20210;-84
2022/05/01 02:39:58;;;;;;;3.40;2.47;;;;;;;8.13;100.00;96585.03;5025777;28;20211;-84
2022/05/01 02:42:25;;;;;;;2.67;2.17;;;;;;;8.15;100.00;96574.91;5021783;28;20235;-84
2022/05/01 02:44:54;;;;;;;2.13;1.90;;;;;;;8.09;100.00;96572.22;5034902;28;20231;-85
2022/05/01 02:47:21;;;;;;;2.70;2.10;;;;;;;8.12;100.00;96572.63;5033642;28;20243;-84
2022/05/01 02:49:49;;;;;;;2.00;1.80;;;;;;;8.03;100.00;96568.50;5019635;28;20206;-84
2022/05/01 02:52:16;;;;;;;2.40;1.90;;;;;;;7.90;100.00;96568.53;5041294;28;20244;-85
2022/05/01 02:54:43;;;;;;;3.30;2.13;;;;;;;7.80;100.00;96573.50;5022061;28;20214;-84
2022/05/01 02:57:10;;;;;;;2.33;2.13;;;;;;;7.75;100.00;96573.25;5028918;28;20217;-84
2022/05/01 02:59:37;;;;;;;6.43;2.37;;;;;;;7.75;100.00;96571.41;5024436;28;20210;-84
2022/05/01 03:02:06;;;;;;;2.67;2.20;;;;;;;7.70;100.00;96562.31;5033148;28;20209;-84
2022/05/01 03:04:34;;;;;;;2.20;2.00;;;;;;;7.71;100.00;96570.19;5014187;28;20234;-84
2022/05/01 03:07:04;;;;;;;2.53;2.30;;;;;;;7.77;100.00;96565.81;5023898;28;20212;-84
2022/05/01 03:09:31;;;;;;;2.10;1.90;;;;;;;7.88;100.00;96567.91;5038166;28;20221;-84
2022/05/01 03:11:58;;;;;;;4.07;2.20;;;;;;;7.94;100.00;96569.75;5043961;28;20211;-84
2022/05/01 03:14:25;;;;;;;2.27;1.80;;;;;;;8.00;100.00;96568.91;5016885;28;20246;-84
2022/05/01 03:16:52;;;;;;;2.33;1.90;;;;;;;8.01;100.00;96570.56;5040388;28;20230;-84
2022/05/01 03:22:13;;;;;;;3.73;2.20;;;;;;;7.89;100.00;96566.88;5024185;28;20206;-84
2022/05/01 03:24:41;;;;;;;2.37;1.87;;;;;;;7.79;100.00;96558.38;5016635;28;20231;-84
2022/05/01 03:27:09;;;;;;;3.47;2.70;;;;;;;7.69;100.00;96560.66;5037099;28;20226;-84
2022/05/01 03:29:37;;;;;;;3.10;2.17;;;;;;;7.72;100.00;96552.19;5037645;28;20202;-84
2022/05/01 03:32:07;;;;;;;2.93;2.00;;;;;;;7.73;100.00;96562.75;5029589;28;20222;-84
2022/05/01 03:34:38;;;;;;;2.10;1.90;;;;;;;7.77;100.00;96560.44;5023750;28;20294;-84
2022/05/01 03:37:07;;;;;;;2.10;1.80;;;;;;;7.73;100.00;96554.69;5024094;28;20206;-85
2022/05/01 03:39:35;;;;;;;2.33;1.80;;;;;;;7.76;100.00;96550.72;5040090;28;20211;-84
2022/05/01 03:42:03;;;;;;;2.00;1.80;;;;;;;7.81;100.00;96557.16;5026299;28;20277;-84
2022/05/01 03:44:29;;;;;;;1.97;1.77;;;;;;;7.87;100.00;96555.50;5019978;28;20222;-84
2022/05/01 03:46:57;;;;;;;2.73;1.93;;;;;;;7.80;100.00;96551.97;5029466;28;20242;-84
2022/05/01 03:49:24;;;;;;;2.03;1.83;;;;;;;7.75;100.00;96559.81;5042590;28;20210;-84
2022/05/01 03:51:52;;;;;;;2.17;1.90;;;;;;;7.69;100.00;96557.97;5038886;28;20231;-84
2022/05/01 03:54:20;;;;;;;2.30;1.93;;;;;;;7.65;100.00;96554.88;5037723;28;20203;-84
2022/05/01 03:56:47;;;;;;;2.97;2.23;;;;;;;7.65;100.00;96554.88;5024048;28;20230;-84
2022/05/01 03:59:14;;;;;;;2.37;2.17;;;;;;;7.76;100.00;96566.84;5015043;28;20231;-84
2022/05/01 04:01:46;;;;;;;2.20;2.00;;;;;;;7.76;100.00;96556.09;5036260;28;20207;-84
2022/05/01 04:04:13;;;;;;;2.60;2.00;;;;;;;7.77;100.00;96558.59;5020353;28;20313;-85
2022/05/01 04:06:40;;;;;;;2.70;1.90;;;;;;;7.72;100.00;96557.56;5037406;28;20235;-84
2022/05/01 04:09:09;;;;;;;3.80;1.90;;;;;;;7.68;100.00;96553.63;5016833;28;20210;-84
2022/05/01 04:11:36;;;;;;;1.70;1.60;;;;;;;7.69;100.00;96561.50;5015774;28;20205;-84
2022/05/01 04:14:03;;;;;;;2.83;2.63;;;;;;;7.73;100.00;96559.22;5030993;28;20225;-85
2022/05/01 04:16:30;;;;;;;3.50;2.03;;;;;;;7.79;100.00;96556.53;5030736;28;20226;-84
2022/05/01 04:18:57;;;;;;;5.50;2.13;;;;;;;7.81;100.00;96565.22;5025464;28;20266;-84
2022/05/01 04:21:24;;;;;;;1.83;1.70;;;;;;;7.75;100.00;96565.19;5042269;28;20267;-84
2022/05/01 04:23:51;;;;;;;2.47;1.90;;;;;;;7.68;100.00;96549.09;5043222;28;20306;-84
2022/05/01 04:26:20;;;;;;;2.80;2.10;;;;;;;7.62;100.00;96554.47;5044160;28;20294;-84
2022/05/01 04:31:28;;;;;;;2.20;2.00;;;;;;;7.48;100.00;96548.28;5044393;28;20210;-84
2022/05/01 04:33:55;;;;;;;2.10;1.90;;;;;;;7.44;100.00;96561.28;5020758;28;20218;-84
2022/05/01 04:36:22;;;;;;;4.80;2.37;;;;;;;7.33;100.00;96551.13;5022202;28;20208;-85
2022/05/01 04:38:50;;;;;;;4.63;2.20;;;;;;;7.35;100.00;96557.13;5038370;28;20235;-84
2022/05/01 04:41:18;;;;;;;2.43;2.10;;;;;;;7.41;100.00;96559.00;5023961;28;20215;-84
2022/05/01 04:43:47;;;;;;;4.57;2.30;;;;;;;7.44;100.00;96560.44;5038575;28;20254;-84
2022/05/01 04:46:14;;;;;;;2.30;2.10;;;;;;;7.38;100.00;96550.53;5022352;28;20210;-84
2022/05/01 04:48:41;;;;;;;3.93;2.40;;;;;;;7.40;100.00;96559.22;5037047;28;20215;-84
2022/05/01 04:51:09;;;;;;;3.30;2.90;;;;;;;7.46;100.00;96556.53;5017103;28;20227;-84
2022/05/01 04:53:36;;;;;;;5.30;2.50;;;;;;;7.49;100.00;96558.78;5034838;28;20204;-84
2022/05/01 04:58:47;;;;;;;3.93;2.13;;;;;;;7.58;100.00;96551.34;5022260;28;20223;-84
2022/05/01 05:01:14;;;;;;;2.27;2.00;;;;;;;7.69;100.00;96563.34;5033096;28;20203;-84
2022/05/01 05:03:41;;;;;;;3.53;2.17;;;;;;;7.70;100.00;96565.00;5023254;28;20227;-84
2022/05/01 05:06:09;;;;;;;2.60;2.00;;;;;;;7.72;100.00;96568.31;5018898;28;20234;-84
2022/05/01 05:11:20;;;;;;;3.90;2.07;;;;;;;7.76;100.00;96567.69;5023657;28;20213;-83
2022/05/01 05:13:49;;;;;;;3.00;2.20;;;;;;;7.87;100.00;96569.75;5024130;28;20303;-85
2022/05/01 05:16:16;;;;;;;8.97;4.40;;;;;;;7.90;100.00;96569.34;5025240;28;20215;-84
2022/05/01 05:18:43;;;;;;;4.30;2.70;;;;;;;7.95;100.00;96569.53;5022125;28;20203;-84
2022/05/01 05:21:10;;;;;;;3.27;2.70;;;;;;;7.97;100.00;96574.72;5042195;28;20293;-84
2022/05/01 05:23:37;;;;;;;3.00;2.70;;;;;;;8.06;100.00;96573.47;5023670;28;20210;-84
2022/05/01 05:26:04;;;;;;;6.13;3.07;;;;;;;8.10;100.00;96572.00;5027243;28;20203;-84
2022/05/01 05:28:32;;;;;;;5.13;3.30;;;;;;;8.12;100.00;96575.31;5043581;28;20203;-84
2022/05/01 05:31:00;;;;;;;3.17;2.87;;;;;;;8.13;100.00;96574.28;5024053;28;20213;-84
2022/05/01 05:33:27;;;;;;;4.07;3.10;;;;;;;8.10;100.00;96572.00;5025604;28;20207;-83
2022/05/01 05:35:54;;;;;;;3.73;2.90;;;;;;;8.16;100.00;96584.63;5023972;28;20207;-83
2022/05/01 05:38:22;;;;;;;3.83;2.93;;;;;;;8.10;100.00;96566.63;5036594;28;20199;-84
2022/05/01 05:40:49;;;;;;;3.50;2.63;;;;;;;8.18;100.00;96576.31;5037206;28;20215;-83
2022/05/01 05:43:16;;;;;;;4.27;2.87;;;;;;;8.14;100.00;96586.69;5028159;28;20199;-84
2022/05/01 05:45:43;;;;;;;4.40;2.80;;;;;;;7.99;100.00;96576.16;5023197;28;20277;-84
2022/05/01 05:48:11;;;;;;;4.77;2.73;;;;;;;8.06;100.00;96578.84;5035149;28;20279;-84
2022/05/01 05:50:38;;;;;;;6.20;2.77;;;;;;;8.05;100.00;96573.66;5040806;28;20231;-84
2022/05/01 05:53:06;;;;;;;2.60;2.40;;;;;;;8.09;100.00;96581.09;5021869;28;20209;-84
2022/05/01 05:55:33;;;;;;;3.00;2.70;;;;;;;8.12;100.00;96577.19;5026252;28;20241;-84
2022/05/01 05:58:00;;;;;;;3.40;2.60;;;;;;;8.11;100.00;96587.09;5024044;28;20272;-85
2022/05/01 06:00:27;;;;;;;3.80;2.70;;;;;;;8.12;100.00;96577.19;5025775;28;20282;-84
2022/05/01 06:02:54;;;;;;;2.63;2.43;;;;;;;8.08;100.00;96576.75;5035959;28;20199;-85
2022/05/01 06:05:23;;;;;;;3.57;2.87;;;;;;;8.20;100.00;96579.66;5058342;28;20284;-84
2022/05/01 06:07:50;;;;;;;2.87;2.27;;;;;;;8.29;100.00;96589.97;5043443;28;20220;-84
2022/05/01 06:10:17;;;;;;;4.40;2.47;;;;;;;8.26;100.00;96582.31;5045448;28;20264;-84
2022/05/01 06:12:45;;;;;;;4.13;2.63;;;;;;;8.23;100.00;96574.69;5022726;28;20207;-84
2022/05/01 06:15:12;;;;;;;3.13;2.73;;;;;;;8.21;100.00;96581.31;5022668;28;20268;-84
2022/05/01 06:17:39;;;;;;;3.40;2.63;;;;;;;8.22;100.00;96582.97;5021201;28;20207;-84
2022/05/01 06:20:07;;;;;;;6.47;4.50;;;;;;;8.24;100.00;96588.97;5015218;28;20202;-85
2022/05/01 06:22:36;;;;;;;4.03;3.10;;;;;;;8.19;100.00;96576.13;5031651;28;20209;-86
2022/05/01 06:25:03;;;;;;;3.03;2.73;;;;;;;8.19;100.00;96578.81;5034681;28;20227;-83
2022/05/01 06:27:31;;;;;;;3.27;2.80;;;;;;;8.22;100.00;96581.09;5029930;28;20254;-84
2022/05/01 06:29:58;;;;;;;3.10;2.70;;;;;;;8.28;100.00;96582.09;5031873;28;20206;-84
2022/05/01 06:32:25;;;;;;;4.20;2.50;;;;;;;8.29;100.00;96586.47;5021507;28;20271;-84
2022/05/01 06:34:53;;;;;;;2.73;2.53;;;;;;;8.32;100.00;96572.63;5019513;28;20203;-84
2022/05/01 06:37:20;;;;;;;2.90;2.53;;;;;;;8.39;100.00;96578.00;5020338;28;20298;-84
2022/05/01 06:39:50;;;;;;;3.53;2.60;;;;;;;8.42;100.00;96574.88;5021495;28;20310;-84
2022/05/01 06:42:17;;;;;;;3.30;2.80;;;;;;;8.40;100.00;96583.16;5021392;28;20215;-84
2022/05/01 06:44:44;;;;;;;2.97;2.60;;;;;;;8.48;100.00;96582.09;5022170;28;20233;-84
2022/05/01 06:47:13;;;;;;;2.90;2.60;;;;;;;8.45;100.00;96585.22;5021117;28;20212;-84
2022/05/01 06:49:40;;;;;;;2.53;2.33;;;;;;;8.40;100.00;96575.09;5022443;28;20207;-84
2022/05/01 06:52:07;;;;;;;3.17;2.43;;;;;;;8.46;100.00;96584.19;5018621;28;20203;-83
2022/05/01 06:54:35;;;;;;;3.70;2.40;;;;;;;8.47;100.00;96585.84;5038671;28;20229;-83
2022/05/01 06:57:04;;;;;;;2.90;2.60;;;;;;;8.49;100.00;96583.75;5040594;28;20293;-83
2022/05/01 06:59:31;;;;;;;5.83;2.73;;;;;;;8.44;100.00;96572.78;5022245;28;20203;-84
2022/05/01 07:01:58;;;;;;;3.90;3.40;;;;;;;8.38;100.00;96582.53;5026173;28;20336;-83
2022/05/01 07:04:25;;;;;;;7.17;4.17;;;;;;;8.42;100.00;96585.66;5018165;28;20229;-87
2022/05/01 07:06:52;;;;;;;4.40;3.43;;;;;;;8.42;100.00;96577.56;5029081;28;20195;-84
2022/05/01 07:09:19;;;;;;;4.33;3.40;;;;;;;8.49;100.00;96586.44;5026265;28;20289;-83
2022/05/01 07:11:46;;;;;;;4.67;3.70;;;;;;;8.54;100.00;96582.06;5023816;28;20207;-83
2022/05/01 07:14:15;;;;;;;4.33;3.90;;;;;;;8.58;100.00;96577.94;5033863;28;20256;-83
2022/05/01 07:16:42;;;;;;;4.00;3.23;;;;;;;8.66;100.00;96568.81;5033881;28;20294;-83
2022/05/01 07:19:09;;;;;;;4.37;3.30;;;;;;;8.85;100.00;96584.03;5042314;28;20271;-83
2022/05/01 07:21:36;;;;;;;3.40;3.10;;;;;;;9.00;100.00;96576.53;5032979;28;20211;-84
2022/05/01 07:24:03;;;;;;;3.97;3.47;;;;;;;9.09;100.00;96577.94;5019848;28;20298;-83
2022/05/01 07:26:33;;;;;;;4.23;3.40;;;;;;;9.15;100.00;96576.22;5009407;28;20235;-84
2022/05/01 07:29:00;;;;;;;7.83;3.60;;;;;;;9.25;100.00;96575.78;5019877;28;20226;-84
2022/05/01 07:31:29;;;;;;;3.50;3.20;;;;;;;9.32;100.00;96568.47;5024804;28;20210;-83
2022/05/01 07:33:56;;;;;;;4.70;3.37;;;;;;;9.34;100.00;96556.44;5025481;28;20215;-83
2022/05/01 07:36:24;;;;;;;3.40;3.10;;;;;;;9.42;100.00;96569.66;5019483;28;20194;-83
2022/05/01 07:38:51;;;;;;;3.27;2.97;;;;;;;9.47;100.00;96560.91;5050813;28;20205;-83
2022/05/01 07:41:19;;;;;;;5.43;3.47;;;;;;;9.53;100.00;96562.72;5025160;28;20229;-83
2022/05/01 07:43:46;;;;;;;4.60;3.60;;;;;;;9.58;100.00;96565.59;5018115;28;20211;-83
2022/05/01 07:46:14;;;;;;;4.00;3.20;;;;;;;9.66;100.00;96569.88;5025137;28;20222;-83
2022/05/01 07:48:42;;;;;;;3.57;3.13;;;;;;;9.73;100.00;96574.19;5043072;28;20283;-83
2022/05/01 07:51:09;;;;;;;4.93;3.50;;;;;;;9.75;100.00;96557.78;5017790;28;20227;-83
2022/05/01 07:53:38;;;;;;;3.53;3.23;;;;;;;9.76;100.00;96562.97;5042288;28;20292;-83
2022/05/01 07:56:05;;;;;;;5.20;3.77;;;;;;;9.71;100.00;96561.97;5023782;28;20249;-83
2022/05/01 07:58:32;;;;;;;5.27;3.90;;;;;;;9.74;100.00;96559.66;5017719;28;20234;-83
2022/05/01 08:01:01;;;;;;;4.73;3.77;;;;;;;9.81;100.00;96555.03;5009946;28;20210;-83
2022/05/01 08:06:14;;;;;;;4.43;3.80;;;;;;;9.92;100.00;96558.88;5018636;28;20231;-83
2022/05/01 08:08:42;;;;;;;5.30;3.57;;;;;;;9.94;100.00;96561.38;5026852;28;20199;-83
2022/05/01 08:11:12;;;;;;;5.70;3.70;;;;;;;9.99;100.00;96548.88;5019917;28;20230;-83
2022/05/01 08:13:40;;;;;;;4.33;3.70;;;;;;;10.08;100.00;96549.41;5024241;28;20217;-83
2022/05/01 08:16:07;;;;;;;4.70;3.40;;;;;;;10.21;100.00;96546.59;5025007;28;20238;-83
2022/05/01 08:21:21;;;;;;;4.80;3.10;;;;;;;10.38;100.00;96547.66;5026217;28;20194;-83
2022/05/01 08:23:49;;;;;;;5.40;3.27;;;;;;;10.49;100.00;96538.81;5027698;28;20210;-83
2022/05/01 08:26:20;;;;;;;5.33;3.23;;;;;;;10.69;100.00;96533.19;5014114;28;20257;-83
2022/05/01 08:28:48;;;;;;;4.30;3.47;;;;;;;10.93;100.00;96529.56;5031753;28;20217;-83
2022/05/01 08:31:15;;;;;;;3.43;2.80;;;;;;;11.11;100.00;96539.50;5025306;28;20230;-83
2022/05/01 08:33:42;;;;;;;4.37;3.37;;;;;;;11.21;100.00;96533.56;5011043;28;20221;-83
2022/05/01 08:36:09;;;;;;;4.83;3.47;;;;;;;11.31;100.00;96541.94;5026212;28;20301;-83
2022/05/01 08:38:38;;;;;;;4.00;3.00;;;;;;;11.34;100.00;96528.78;5027110;28;20204;-83
2022/05/01 08:41:05;;;;;;;4.60;3.30;;;;;;;11.45;100.00;96537.16;5038201;28;20235;-83
2022/05/01 08:43:33;;;;;;;3.60;3.30;;;;;;;11.58;100.00;96536.94;5043964;28;20211;-83
2022/05/01 08:46:24;;;;;;;4.03;3.40;;;;;;;11.80;100.00;96535.38;5025361;28;20218;-83
2022/05/01 08:48:59;;;;;;;5.10;3.30;;;;;;;12.56;100.00;96544.44;5030904;28;20267;-83
2022/05/01 08:51:27;;;;;;;6.57;2.80;;;;;;;13.10;100.00;96535.00;5028128;28;20244;-84
2022/05/01 08:53:58;;;;;;;3.20;2.90;;;;;;;13.37;100.00;96536.06;5030134;28;20206;-83
2022/05/01 08:56:26;;;;;;;4.20;3.50;;;;;;;13.19;100.00;96539.81;5045836;28;20290;-83
2022/05/01 08:58:54;;;;;;;3.60;3.30;;;;;;;13.39;100.00;96520.38;5044953;28;20210;-84
2022/05/01 09:01:22;;;;;;;4.43;3.20;;;;;;;13.72;95.16;96518.78;5024356;28;20217;-84
2022/05/01 09:03:49;;;;;;;3.60;3.30;;;;;;;13.50;98.33;96513.25;5032506;28;20212;-83
2022/05/01 09:06:16;;;;;;;4.43;3.30;;;;;;;13.99;100.00;96514.34;5055463;28;20281;-83
2022/05/01 09:08:44;;;;;;;3.93;2.90;;;;;;;14.15;96.27;96513.50;5028566;28;20202;-84
2022/05/01 09:13:57;;;;;;;3.87;2.60;;;;;;;14.23;92.85;96513.09;5016814;28;20223;-83
2022/05/01 09:16:25;;;;;;;3.00;2.63;;;;;;;14.46;93.02;96511.28;5026886;28;20215;-83
2022/05/01 09:18:52;;;;;;;3.13;2.83;;;;;;;14.59;89.45;96511.72;5016967;28;20547;-83
2022/05/01 09:21:19;;;;;;;3.23;2.83;;;;;;;14.66;90.63;96503.38;5035060;28;20302;-83
2022/05/01 09:23:48;;;;;;;2.90;2.60;;;;;;;14.78;90.18;96504.09;5022221;28;20207;-83
2022/05/01 09:26:18;;;;;;;3.53;2.70;;;;;;;14.87;89.68;96505.31;5024841;28;20301;-83
2022/05/01 09:28:50;;;;;;;4.40;3.23;;;;;;;14.58;90.29;96503.81;5045270;28;20210;-83
2022/05/01 09:31:19;;;;;;;4.70;3.10;;;;;;;14.34;91.36;96504.03;5012697;28;20269;-83
2022/05/01 09:33:46;;;;;;;2.90;2.60;;;;;;;14.34;91.18;96492.34;5015737;28;20213;-83
2022/05/01 09:36:35;;;;;;;3.27;2.90;;;;;;;14.89;90.41;96503.13;5013741;28;20266;-83
2022/05/01 09:39:03;;;;;;;4.63;3.20;;;;;;;15.15;84.32;96502.34;5029364;28;20218;-83
2022/05/01 09:41:32;;;;;;;2.97;2.67;;;;;;;15.12;85.91;96500.16;5014729;28;20200;-83
2022/05/01 09:44:00;;;;;;;3.13;2.70;;;;;;;14.94;86.43;96497.78;5026309;28;20215;-83
2022/05/01 09:46:28;;;;;;;2.80;2.60;;;;;;;14.65;86.03;96499.03;5015657;28;20219;-83
2022/05/01 09:49:00;;;;;;;3.10;2.80;;;;;;;14.45;88.16;96496.06;5026721;28;20215;-82
2022/05/01 09:51:29;;;;;;;3.33;3.00;;;;;;;14.39;88.52;96498.69;5016549;28;20248;-82
2022/05/01 09:53:57;;;;;;;3.63;3.33;;;;;;;14.39;87.82;96501.41;5032788;28;20206;-82
2022/05/01 09:56:24;;;;;;;3.60;3.30;;;;;;;14.51;89.79;96495.03;5014123;28;20234;-82
2022/05/01 09:59:01;;;;;;;2.97;2.73;;;;;;;14.63;88.93;96495.75;5028207;28;20203;-82
2022/05/01 10:01:29;;;;;;;4.40;3.10;;;;;;;14.58;87.63;96499.22;5020503;28;20229;-82
2022/05/01 10:04:00;;;;;;;3.70;3.30;;;;;;;14.43;88.43;96490.88;5031723;28;20293;-82
2022/05/01 10:06:31;;;;;;;3.63;3.33;;;;;;;14.34;87.49;96486.91;5029013;28;20229;-82
2022/05/01 10:08:59;;;;;;;3.87;3.03;;;;;;;14.28;89.22;96486.03;5037467;28;20217;-82
2022/05/01 10:11:26;;;;;;;4.17;3.37;;;;;;;14.29;88.97;96479.50;5016480;28;20199;-82
2022/05/01 10:13:55;;;;;;;4.63;4.20;;;;;;;14.33;90.68;96486.09;5027598;28;20215;-82
2022/05/01 10:16:24;;;;;;;4.50;4.07;;;;;;;14.45;90.39;96488.72;5019331;28;20214;-82
2022/05/01 10:18:51;;;;;;;5.37;3.80;;;;;;;14.55;89.64;96479.88;5029232;28;20215;-82
2022/05/01 10:21:18;;;;;;;4.13;3.67;;;;;;;14.68;88.55;96490.38;5021945;28;20210;-82
2022/05/01 10:23:46;;;;;;;4.93;4.43;;;;;;;14.51;87.56;96490.44;5028708;28;20212;-82
2022/05/01 10:26:18;;;;;;;7.00;3.67;;;;;;;14.42;88.83;96483.78;5024744;28;20223;-82
2022/05/01 10:29:18;;;;;;;4.93;3.70;;;;;;;14.49;88.27;96483.59;5043246;28;20273;-82
2022/05/01 10:32:22;;;;;;;5.03;4.53;;;;;;;14.52;87.77;96481.22;5036925;28;20221;-82
2022/05/01 10:35:07;;;;;;;5.00;4.50;;;;;;;14.35;88.53;96489.38;5026706;28;20218;-82
2022/05/01 10:38:03;;;;;;;4.80;4.40;;;;;;;14.25;90.54;96483.78;5011394;28;20207;-82
2022/05/01 10:40:33;;;;;;;7.47;3.80;;;;;;;14.25;89.47;96481.06;5028153;28;20203;-82
2022/05/01 10:43:26;;;;;;;4.60;4.00;;;;;;;14.28;88.26;96477.88;5026219;28;20264;-82
2022/05/01 10:45:54;;;;;;;4.80;4.30;;;;;;;14.31;88.79;96471.91;5021153;28;20254;-82
2022/05/01 10:48:34;;;;;;;4.40;3.70;;;;;;;14.46;88.43;96478.69;5046773;28;20207;-82
2022/05/01 10:51:39;;;;;;;4.67;4.20;;;;;;;14.39;88.25;96479.66;5018588;28;20237;-83
2022/05/01 10:54:36;;;;;;;4.83;4.20;;;;;;;14.62;90.08;96472.38;5038088;28;20218;-82
2022/05/01 10:57:17;;;;;;;7.20;5.47;;;;;;;14.57;87.79;96469.56;5012760;28;20204;-82
2022/05/01 10:59:49;;;;;;;5.00;4.47;;;;;;;14.52;86.28;96472.25;5025205;28;20211;-82
2022/05/01 11:02:25;;;;;;;4.60;4.20;;;;;;;14.63;85.94;96468.59;5025665;28;20199;-83
2022/05/01 11:04:55;;;;;;;5.50;4.93;;;;;;;14.73;86.07;96460.53;5015295;28;20275;-82
2022/05/01 11:07:24;;;;;;;5.73;5.10;;;;;;;14.65;86.42;96460.97;5026916;28;20320;-83
2022/05/01 11:09:51;;;;;;;5.87;4.90;;;;;;;14.77;88.52;96458.97;5021666;28;20207;-82
2022/05/01 11:12:21;;;;;;;11.70;5.30;;;;;;;14.80;87.26;96447.56;5009806;28;20211;-82
2022/05/01 11:14:54;;;;;;;5.07;4.57;;;;;;;14.80;86.33;96450.28;5016906;28;20214;-83
2022/05/01 11:17:55;;;;;;;5.90;4.50;;;;;;;14.82;87.24;96459.00;5038415;28;20735;-83
2022/05/01 11:20:29;;;;;;;8.17;5.67;;;;;;;14.73;88.44;96452.38;5021335;28;20222;-83
2022/05/01 11:22:57;;;;;;;6.20;4.93;;;;;;;14.74;88.58;96451.31;5019846;28;20260;-83
2022/05/01 11:25:32;;;;;;;7.23;4.80;;;;;;;14.77;86.97;96454.34;5017160;28;20225;-83
2022/05/01 11:28:00;;;;;;;6.07;5.23;;;;;;;14.67;86.49;96451.50;5043936;28;20225;-83
2022/05/01 11:30:35;;;;;;;7.87;5.20;;;;;;;14.61;88.33;96454.41;5024529;28;20221;-83
2022/05/01 11:33:05;;;;;;;6.33;5.27;;;;;;;14.67;88.60;96442.53;5009772;28;20230;-83
2022/05/01 11:36:05;;;;;;;6.60;5.80;;;;;;;14.82;89.37;96436.44;5042801;28;20210;-83
2022/05/01 11:38:33;;;;;;;8.17;5.73;;;;;;;15.06;86.18;96444.06;4986271;28;20215;-83
2022/05/01 11:41:02;;;;;;;6.10;5.17;;;;;;;15.06;85.53;96443.22;5025702;28;20200;-83
2022/05/01 11:43:31;;;;;;;5.80;5.20;;;;;;;15.02;85.83;96436.66;5017278;28;20261;-82
2022/05/01 11:46:01;;;;;;;5.87;5.00;;;;;;;15.11;85.30;96437.84;5037819;28;20259;-83
2022/05/01 11:48:28;;;;;;;5.90;4.93;;;;;;;15.14;85.55;96432.72;5023255;28;20229;-83
2022/05/01 11:50:59;;;;;;;6.10;5.20;;;;;;;15.02;87.48;96418.47;5011463;28;20231;-83
2022/05/01 11:53:29;;;;;;;5.60;5.00;;;;;;;15.21;85.31;96424.38;5019217;28;20207;-83
2022/05/01 12:04:27;;;;;;;7.30;5.53;;;;;;;16.19;80.50;96411.22;5033311;28;20211;-82
2022/05/01 12:06:59;;;;;;;5.73;4.93;;;;;;;16.38;78.56;96407.00;5028372;28;20223;-82
2022/05/01 12:09:29;;;;;;;6.93;5.20;;;;;;;16.63;79.29;96401.66;5022797;28;20262;-82
2022/05/01 12:11:56;;;;;;;7.40;5.00;;;;;;;17.01;75.05;96392.22;5021824;28;20206;-83
2022/05/01 12:14:23;;;;;;;5.50;4.60;;;;;;;16.92;75.17;96390.31;5021688;28;20214;-82
2022/05/01 12:16:51;;;;;;;5.70;5.10;;;;;;;16.97;74.47;96388.41;5027611;28;20219;-81